createdAt,value
2018-06-11T00:02:09.280Z,4.97
2018-06-11T00:04:38.196Z,4.00
2018-06-11T00:07:07.257Z,4.40
2018-06-11T00:09:36.136Z,4.03
2018-06-11T00:12:04.964Z,4.37
2018-06-11T00:14:33.880Z,4.40
2018-06-11T00:17:02.738Z,4.53
2018-06-11T00:19:31.611Z,4.60
2018-06-11T00:22:00.507Z,4.10
2018-06-11T00:24:29.376Z,3.97
2018-06-11T00:26:58.341Z,4.37
2018-06-11T00:29:26.959Z,4.30
2018-06-11T00:31:55.885Z,3.73
2018-06-11T00:34:24.780Z,4.17
2018-06-11T00:36:53.623Z,4.00
2018-06-11T00:39:22.624Z,4.23
2018-06-11T00:41:51.480Z,4.07
2018-06-11T00:44:19.978Z,3.90
2018-06-11T00:46:48.841Z,4.27
2018-06-11T00:49:17.371Z,4.03
2018-06-11T00:51:46.304Z,4.20
2018-06-11T00:54:15.218Z,4.60
2018-06-11T00:56:44.161Z,4.30
2018-06-11T00:59:13.092Z,4.43
2018-06-11T01:01:41.984Z,3.63
2018-06-11T01:04:10.912Z,4.93
2018-06-11T01:06:39.826Z,4.23
2018-06-11T01:09:08.724Z,4.47
2018-06-11T01:11:37.653Z,4.37
2018-06-11T01:14:06.584Z,4.33
2018-06-11T01:16:35.520Z,4.10
2018-06-11T01:19:04.412Z,4.30
2018-06-11T01:21:33.330Z,4.50
2018-06-11T01:24:02.184Z,4.80
2018-06-11T01:26:31.148Z,5.37
2018-06-11T01:29:00.068Z,5.10
2018-06-11T01:31:28.972Z,5.67
2018-06-11T01:33:57.878Z,5.20
2018-06-11T01:36:26.780Z,5.60
2018-06-11T01:38:55.712Z,5.53
2018-06-11T01:41:24.646Z,5.70
2018-06-11T01:43:53.584Z,5.63
2018-06-11T01:46:22.448Z,6.03
2018-06-11T01:48:51.401Z,5.97
2018-06-11T01:51:20.348Z,5.03
2018-06-11T01:53:48.859Z,5.47
2018-06-11T01:56:17.870Z,6.20
2018-06-11T01:58:46.756Z,5.30
2018-06-11T02:01:15.654Z,5.43
2018-06-11T02:03:44.622Z,5.17
2018-06-11T02:06:13.512Z,5.53
2018-06-11T02:08:42.430Z,5.67
2018-06-11T02:11:11.340Z,6.33
2018-06-11T02:13:40.244Z,5.60
2018-06-11T02:16:08.683Z,5.30
2018-06-11T02:18:37.632Z,5.47
2018-06-11T02:21:06.521Z,5.40
2018-06-11T02:23:35.448Z,4.60
2018-06-11T02:26:04.348Z,5.93
2018-06-11T02:28:33.240Z,5.30
2018-06-11T02:31:02.183Z,5.33
2018-06-11T02:33:31.103Z,5.47
2018-06-11T02:35:59.984Z,5.10
2018-06-11T02:38:28.982Z,5.50
2018-06-11T02:40:57.839Z,5.37
2018-06-11T02:43:26.766Z,5.03
2018-06-11T02:45:55.744Z,5.27
2018-06-11T02:48:24.568Z,4.73
2018-06-11T02:50:53.501Z,4.80
2018-06-11T02:53:22.351Z,4.93
2018-06-11T02:55:51.224Z,5.03
2018-06-11T02:58:20.109Z,4.93
2018-06-11T03:00:49.024Z,5.03
2018-06-11T03:03:17.892Z,5.27
2018-06-11T03:05:46.832Z,4.80
2018-06-11T03:08:15.727Z,4.43
2018-06-11T03:10:44.597Z,4.80
2018-06-11T03:13:13.488Z,5.10
2018-06-11T03:15:42.405Z,5.43
2018-06-11T03:18:11.277Z,5.27
2018-06-11T03:20:40.448Z,4.80
2018-06-11T03:23:09.373Z,5.10
2018-06-11T03:25:38.240Z,6.00
2018-06-11T03:28:07.227Z,5.37
2018-06-11T03:30:36.114Z,5.30
2018-06-11T03:33:05.042Z,5.70
2018-06-11T03:35:33.924Z,5.33
2018-06-11T03:38:02.832Z,5.40
2018-06-11T03:40:31.707Z,5.13
2018-06-11T03:43:00.656Z,5.27
2018-06-11T03:45:29.489Z,5.13
2018-06-11T03:47:58.425Z,5.30
2018-06-11T03:50:27.846Z,5.40
2018-06-11T03:52:56.765Z,5.03
2018-06-11T03:55:25.659Z,4.57
2018-06-11T03:57:54.528Z,5.37
2018-06-11T04:00:23.472Z,5.10
2018-06-11T04:02:52.084Z,5.00
2018-06-11T04:05:21.011Z,5.67
2018-06-11T04:07:49.900Z,5.30
2018-06-11T04:10:18.811Z,5.20
2018-06-11T04:12:47.697Z,5.80
2018-06-11T04:15:16.584Z,5.60
2018-06-11T04:17:45.504Z,5.07
2018-06-11T04:20:13.955Z,5.23
2018-06-11T04:22:42.828Z,5.33
2018-06-11T04:25:11.748Z,5.47
2018-06-11T04:27:40.603Z,6.00
2018-06-11T04:30:09.468Z,5.57
2018-06-11T04:32:38.427Z,5.77
2018-06-11T04:35:07.352Z,5.80
2018-06-11T04:37:36.254Z,5.60
2018-06-11T04:40:05.133Z,5.97
2018-06-11T04:42:34.096Z,6.03
2018-06-11T04:45:03.049Z,6.07
2018-06-11T04:47:31.932Z,5.60
2018-06-11T04:50:00.807Z,6.47
2018-06-11T04:52:29.704Z,6.40
2018-06-11T04:54:58.571Z,6.07
2018-06-11T04:57:27.518Z,5.77
2018-06-11T04:59:55.939Z,6.03
2018-06-11T05:02:24.911Z,5.37
2018-06-11T05:04:53.856Z,5.53
2018-06-11T05:07:22.752Z,5.47
2018-06-11T05:09:51.591Z,5.87
2018-06-11T05:12:20.776Z,5.20
2018-06-11T05:14:49.631Z,5.67
2018-06-11T05:17:18.564Z,5.30
2018-06-11T05:19:47.612Z,5.20
2018-06-11T05:22:16.600Z,5.53
2018-06-11T05:24:45.456Z,5.33
2018-06-11T05:27:14.367Z,5.27
2018-06-11T05:29:43.236Z,5.40
2018-06-11T05:32:12.112Z,5.80
2018-06-11T05:34:41.057Z,5.50
2018-06-11T05:37:09.947Z,5.50
2018-06-11T05:39:38.868Z,4.90
2018-06-11T05:42:07.779Z,5.27
2018-06-11T05:44:36.744Z,5.27
2018-06-11T05:47:05.681Z,5.30
2018-06-11T05:49:34.575Z,4.87
2018-06-11T05:52:03.468Z,5.80
2018-06-11T05:54:32.426Z,6.00
2018-06-11T05:57:01.264Z,5.63
2018-06-11T05:59:29.695Z,5.33
2018-06-11T06:01:58.579Z,5.43
2018-06-11T06:04:27.456Z,5.80
2018-06-11T06:06:56.440Z,6.10
2018-06-11T06:09:25.284Z,6.10
2018-06-11T06:11:54.208Z,5.47
2018-06-11T06:14:23.068Z,5.37
2018-06-11T06:16:51.970Z,5.63
2018-06-11T06:19:20.404Z,5.20
2018-06-11T06:21:49.335Z,5.47
2018-06-11T06:24:18.226Z,5.20
2018-06-11T06:26:46.778Z,5.30
2018-06-11T06:29:15.644Z,6.60
2018-06-11T06:31:44.547Z,5.50
2018-06-11T06:34:13.474Z,5.67
2018-06-11T06:36:42.325Z,5.33
2018-06-11T06:39:11.208Z,5.13
2018-06-11T06:41:40.124Z,5.20
2018-06-11T06:44:08.982Z,5.57
2018-06-11T06:46:37.907Z,5.10
2018-06-11T06:49:06.348Z,5.10
2018-06-11T06:51:35.224Z,4.90
2018-06-11T06:54:04.153Z,5.13
2018-06-11T06:56:33.061Z,5.10
2018-06-11T06:59:01.591Z,5.90
2018-06-11T07:01:30.544Z,5.57
2018-06-11T07:03:59.464Z,4.50
2018-06-11T07:06:28.468Z,4.77
2018-06-11T07:08:57.436Z,5.00
2018-06-11T07:11:26.380Z,4.50
2018-06-11T07:13:55.325Z,4.53
2018-06-11T07:16:24.260Z,4.87
2018-06-11T07:18:53.202Z,4.53
2018-06-11T07:21:22.044Z,4.20
2018-06-11T07:23:50.569Z,4.50
2018-06-11T07:26:19.500Z,4.13
2018-06-11T07:28:48.413Z,4.20
2018-06-11T07:31:17.075Z,4.33
2018-06-11T07:33:45.952Z,4.40
2018-06-11T07:36:19.406Z,4.00
2018-06-11T07:38:48.316Z,5.00
2018-06-11T07:41:17.301Z,4.43
2018-06-11T07:43:46.188Z,4.57
2018-06-11T07:46:15.133Z,4.63
2018-06-11T07:48:44.152Z,4.30
2018-06-11T07:51:13.399Z,4.20
2018-06-11T07:53:42.293Z,4.73
2018-06-11T07:56:11.223Z,4.27
2018-06-11T07:58:40.155Z,4.17
2018-06-11T08:01:09.332Z,4.60
2018-06-11T08:03:38.208Z,4.77
2018-06-11T08:06:07.077Z,4.40
2018-06-11T08:08:36.784Z,4.17
2018-06-11T08:11:05.757Z,4.43
2018-06-11T08:13:34.834Z,4.33
2018-06-11T08:16:03.673Z,4.10
2018-06-11T08:18:32.576Z,4.27
2018-06-11T08:21:01.524Z,4.50
2018-06-11T08:23:30.436Z,4.27
2018-06-11T08:25:58.967Z,3.87
2018-06-11T08:28:27.884Z,4.40
2018-06-11T08:30:56.824Z,4.50
2018-06-11T08:33:25.700Z,4.27
2018-06-11T08:35:54.658Z,4.00
2018-06-11T08:38:23.532Z,3.70
2018-06-11T08:40:52.444Z,4.53
2018-06-11T08:43:21.308Z,4.40
2018-06-11T08:45:50.280Z,4.47
2018-06-11T08:48:19.152Z,4.70
2018-06-11T08:50:48.100Z,4.22
2018-06-11T08:53:17.001Z,4.47
2018-06-11T08:55:46.281Z,4.12
2018-06-11T08:58:15.220Z,3.90
2018-06-11T09:00:44.136Z,3.65
2018-06-11T09:03:13.100Z,3.60
2018-06-11T09:05:41.988Z,3.95
2018-06-11T09:08:10.931Z,4.12
2018-06-11T09:10:39.351Z,3.47
2018-06-11T09:13:08.256Z,3.62
2018-06-11T09:15:37.141Z,3.83
2018-06-11T09:18:06.229Z,3.80
2018-06-11T09:20:35.216Z,4.08
2018-06-11T09:23:04.501Z,3.85
2018-06-11T09:25:34.807Z,3.60
2018-06-11T09:28:04.136Z,3.30
2018-06-11T09:30:33.008Z,4.10
2018-06-11T09:33:01.890Z,3.22
2018-06-11T09:35:30.822Z,3.10
2018-06-11T09:42:12.651Z,3.52
2018-06-11T09:44:41.564Z,3.30
2018-06-11T09:47:09.972Z,3.25
2018-06-11T09:49:38.825Z,3.02
2018-06-11T09:52:07.859Z,3.10
2018-06-11T09:54:36.834Z,3.10
2018-06-11T09:57:05.908Z,2.92
2018-06-11T09:59:34.792Z,3.30
2018-06-11T10:02:03.821Z,3.15
2018-06-11T10:04:32.300Z,3.25
2018-06-11T10:07:01.192Z,3.70
2018-06-11T10:09:30.109Z,3.70
2018-06-11T10:11:59.089Z,3.62
2018-06-11T10:14:28.009Z,3.40
2018-06-11T10:16:56.870Z,3.35
2018-06-11T10:19:25.863Z,3.45
2018-06-11T10:21:54.677Z,3.62
2018-06-11T10:24:23.620Z,3.35
2018-06-11T10:26:52.578Z,3.37
2018-06-11T10:29:21.460Z,3.75
2018-06-11T10:31:50.399Z,3.55
2018-06-11T10:34:19.289Z,3.30
2018-06-11T10:36:48.188Z,3.20
2018-06-11T10:39:17.545Z,3.15
2018-06-11T10:41:46.440Z,3.30
2018-06-11T10:44:15.382Z,3.55
2018-06-11T10:46:44.199Z,3.17
2018-06-11T10:49:13.150Z,3.10
2018-06-11T10:51:42.024Z,3.02
2018-06-11T10:54:10.599Z,3.00
2018-06-11T10:56:39.108Z,3.17
2018-06-11T10:59:08.040Z,3.00
2018-06-11T11:01:36.923Z,2.92
2018-06-11T11:04:05.822Z,3.10
2018-06-11T11:06:34.724Z,3.17
2018-06-11T11:09:03.851Z,3.55
2018-06-11T11:11:32.849Z,3.37
2018-06-11T11:14:01.853Z,3.08
2018-06-11T11:16:30.749Z,3.70
2018-06-11T11:18:59.677Z,3.33
2018-06-11T11:21:28.726Z,2.87
2018-06-11T11:23:57.766Z,3.08
2018-06-11T11:26:26.709Z,3.50
2018-06-11T11:28:55.670Z,3.70
2018-06-11T11:31:24.625Z,3.40
2018-06-11T11:33:53.609Z,3.15
2018-06-11T11:36:22.564Z,3.65
2018-06-11T11:38:51.037Z,3.30
2018-06-11T11:41:20.001Z,3.12
2018-06-11T11:43:48.887Z,2.95
2018-06-11T11:46:17.389Z,3.42
2018-06-11T11:48:46.382Z,2.72
2018-06-11T11:51:15.286Z,2.95
2018-06-11T11:53:44.192Z,3.17
2018-06-11T11:56:13.137Z,2.95
2018-06-11T11:58:42.073Z,3.25
2018-06-11T12:01:10.559Z,3.12
2018-06-11T12:03:39.493Z,3.15
2018-06-11T12:06:08.486Z,3.67
2018-06-11T12:08:37.424Z,3.27
2018-06-11T12:11:05.980Z,3.40
2018-06-11T12:13:34.901Z,3.20
2018-06-11T12:16:03.817Z,3.37
2018-06-11T12:18:32.893Z,3.55
2018-06-11T12:21:01.867Z,3.60
2018-06-11T12:23:30.796Z,3.47
2018-06-11T12:26:00.157Z,3.05
2018-06-11T12:28:30.149Z,3.60
2018-06-11T12:30:59.161Z,3.62
2018-06-11T12:33:28.067Z,3.70
2018-06-11T12:35:57.038Z,3.67
2018-06-11T12:38:25.971Z,3.50
2018-06-11T12:40:54.941Z,3.98
2018-06-11T12:43:23.808Z,3.83
2018-06-11T12:45:52.763Z,4.00
2018-06-11T12:48:21.646Z,4.20
2018-06-11T12:50:50.614Z,3.62
2018-06-11T12:53:19.621Z,3.90
2018-06-11T12:55:48.669Z,3.75
2018-06-11T12:58:17.648Z,3.72
2018-06-11T13:00:46.605Z,4.00
2018-06-11T13:03:15.551Z,3.65
2018-06-11T13:05:45.181Z,3.90
2018-06-11T13:08:13.723Z,3.70
2018-06-11T13:10:42.658Z,4.15
2018-06-11T13:13:11.666Z,4.58
2018-06-11T13:15:40.652Z,4.00
2018-06-11T13:18:09.177Z,4.17
2018-06-11T13:20:38.129Z,4.12
2018-06-11T13:23:06.608Z,4.12
2018-06-11T13:25:35.111Z,4.17
2018-06-11T13:28:04.078Z,4.05
2018-06-11T13:30:33.063Z,4.35
2018-06-11T13:33:01.961Z,4.17
2018-06-11T13:35:30.918Z,4.10
2018-06-11T13:37:59.500Z,4.50
2018-06-11T13:40:28.460Z,4.60
2018-06-11T13:42:57.418Z,4.30
2018-06-11T13:45:25.892Z,4.22
2018-06-11T13:47:54.824Z,4.10
2018-06-11T13:50:23.747Z,4.20
2018-06-11T13:52:52.705Z,4.45
2018-06-11T13:55:21.654Z,4.53
2018-06-11T13:57:50.619Z,4.50
2018-06-11T14:00:19.590Z,4.80
2018-06-11T14:02:48.577Z,4.50
2018-06-11T14:05:17.585Z,4.33
2018-06-11T14:07:46.541Z,4.37
2018-06-11T14:10:15.066Z,4.55
2018-06-11T14:12:44.004Z,4.33
2018-06-11T14:15:12.510Z,5.00
2018-06-11T14:17:41.462Z,4.90
2018-06-11T14:20:10.501Z,4.58
2018-06-11T14:22:39.444Z,4.75
2018-06-11T14:25:08.433Z,5.22
2018-06-11T14:27:37.373Z,4.92
2018-06-11T14:30:06.319Z,4.92
2018-06-11T14:32:35.258Z,4.90
2018-06-11T14:35:04.181Z,5.25
2018-06-11T14:37:33.093Z,5.20
2018-06-11T14:40:02.065Z,5.42
2018-06-11T14:42:30.993Z,5.87
2018-06-11T14:44:59.921Z,5.30
2018-06-11T14:47:28.864Z,5.53
2018-06-11T14:49:57.830Z,5.47
2018-06-11T14:52:26.733Z,5.40
2018-06-11T14:54:55.273Z,6.33
2018-06-11T14:57:24.161Z,5.55
2018-06-11T14:59:53.130Z,5.90
2018-06-11T15:02:22.079Z,5.55
2018-06-11T15:04:51.067Z,5.62
2018-06-11T15:07:20.033Z,4.97
2018-06-11T15:12:32.795Z,5.72
2018-06-11T15:15:02.056Z,5.95
2018-06-11T15:17:30.948Z,5.42
2018-06-11T15:19:59.802Z,5.75
2018-06-11T15:22:28.766Z,5.08
2018-06-11T15:24:57.583Z,5.55
2018-06-11T15:27:26.066Z,5.25
2018-06-11T15:29:54.564Z,5.40
2018-06-11T15:32:23.424Z,5.25
2018-06-11T15:34:51.878Z,5.47
2018-06-11T15:40:05.093Z,5.83
2018-06-11T15:42:33.973Z,5.40
2018-06-11T15:45:02.900Z,6.83
2018-06-11T15:47:32.023Z,6.40
2018-06-11T15:50:00.431Z,6.33
2018-06-11T15:52:29.436Z,5.47
2018-06-11T15:55:02.444Z,5.72
2018-06-11T15:57:32.069Z,5.80
2018-06-11T16:00:00.924Z,5.42
2018-06-11T16:02:32.352Z,5.70
2018-06-11T16:05:01.513Z,5.60
2018-06-11T16:07:31.552Z,5.90
2018-06-11T16:10:01.319Z,5.95
2018-06-11T16:12:30.918Z,5.65
2018-06-11T16:15:00.025Z,5.80
2018-06-11T16:17:28.977Z,6.12
2018-06-11T16:19:58.507Z,5.90
2018-06-11T16:22:27.287Z,5.70
2018-06-11T16:24:56.415Z,5.97
2018-06-11T16:27:25.562Z,5.75
2018-06-11T16:29:54.431Z,6.47
2018-06-11T16:32:23.266Z,5.95
2018-06-11T16:34:52.154Z,6.25
2018-06-11T16:37:21.001Z,6.95
2018-06-11T16:39:50.000Z,6.47
2018-06-11T16:42:19.708Z,6.03
2018-06-11T16:44:53.012Z,6.42
2018-06-11T16:47:22.432Z,6.50
2018-06-11T16:49:53.221Z,6.10
2018-06-11T16:52:22.564Z,5.92
2018-06-11T16:54:51.432Z,5.33
2018-06-11T16:57:20.996Z,6.12
2018-06-11T16:59:49.880Z,5.97
2018-06-11T17:02:20.799Z,6.30
2018-06-11T17:04:49.677Z,6.12
2018-06-11T17:07:18.500Z,6.42
2018-06-11T17:09:47.380Z,6.00
2018-06-11T17:12:16.212Z,6.30
2018-06-11T17:14:45.091Z,6.00
2018-06-11T17:17:14.004Z,6.42
2018-06-11T17:19:44.052Z,5.87
2018-06-11T17:22:12.899Z,5.97
2018-06-11T17:24:41.800Z,6.50
2018-06-11T17:27:10.693Z,6.28
2018-06-11T17:29:39.592Z,6.35
2018-06-11T17:32:08.439Z,6.10
2018-06-11T17:34:38.010Z,5.97
2018-06-11T17:37:07.142Z,6.22
2018-06-11T17:39:37.591Z,6.40
2018-06-11T17:42:07.344Z,6.42
2018-06-11T17:44:36.251Z,6.40
2018-06-11T17:47:05.072Z,6.72
2018-06-11T17:49:34.000Z,6.85
2018-06-11T17:52:02.939Z,6.47
2018-06-11T17:54:31.846Z,7.12
2018-06-11T17:57:00.767Z,6.45
2018-06-11T17:59:29.723Z,6.58
2018-06-11T18:01:58.728Z,7.10
2018-06-11T18:04:27.433Z,6.47
2018-06-11T18:06:56.321Z,7.15
2018-06-11T18:09:25.392Z,6.20
2018-06-11T18:11:53.876Z,6.42
2018-06-11T18:14:22.827Z,6.67
2018-06-11T18:16:51.853Z,6.20
2018-06-11T18:19:20.903Z,6.87
2018-06-11T18:21:49.954Z,6.33
2018-06-11T18:24:18.886Z,6.78
2018-06-11T18:26:47.835Z,7.20
2018-06-11T18:29:16.794Z,7.22
2018-06-11T18:31:45.720Z,7.08
2018-06-11T18:34:14.660Z,7.47
2018-06-11T18:36:43.552Z,7.22
2018-06-11T18:39:12.413Z,7.15
2018-06-11T18:41:41.325Z,7.22
2018-06-11T18:44:10.181Z,7.25
2018-06-11T18:46:39.137Z,7.10
2018-06-11T18:49:08.030Z,7.75
2018-06-11T18:51:37.331Z,8.10
2018-06-11T18:54:06.565Z,10.78
2018-06-11T18:56:35.472Z,8.33
2018-06-11T18:59:04.308Z,8.60
2018-06-11T19:01:33.175Z,7.75
2018-06-11T19:04:02.481Z,7.80
2018-06-11T19:06:31.358Z,8.25
2018-06-11T19:09:00.277Z,8.10
2018-06-11T19:11:29.316Z,8.98
2018-06-11T19:13:58.458Z,8.15
2018-06-11T19:16:27.344Z,8.40
2018-06-11T19:18:56.313Z,8.05
2018-06-11T19:21:25.177Z,8.15
2018-06-11T19:23:54.008Z,8.35
2018-06-11T19:26:23.240Z,8.40
2018-06-11T19:28:52.317Z,8.25
2018-06-11T19:31:21.301Z,8.78
2018-06-11T19:33:50.453Z,7.83
2018-06-11T19:36:19.710Z,8.03
2018-06-11T19:38:48.824Z,8.58
2018-06-11T19:41:18.750Z,8.60
2018-06-11T19:43:48.873Z,8.63
2018-06-11T19:46:17.746Z,8.63
2018-06-11T19:48:46.692Z,9.45
2018-06-11T19:51:15.920Z,9.23
2018-06-11T19:53:44.959Z,9.00
2018-06-11T19:56:13.502Z,9.18
2018-06-11T19:58:42.961Z,8.68
2018-06-11T20:01:12.173Z,8.03
2018-06-11T20:03:41.313Z,9.13
2018-06-11T20:06:10.505Z,8.55
2018-06-11T20:08:39.539Z,8.55
2018-06-11T20:11:08.524Z,7.90
2018-06-11T20:13:37.456Z,8.98
2018-06-11T20:16:06.350Z,9.18
2018-06-11T20:18:35.391Z,9.00
2018-06-11T20:21:08.887Z,10.10
2018-06-11T20:23:38.347Z,8.83
2018-06-11T20:26:07.374Z,10.00
2018-06-11T20:28:36.598Z,9.33
2018-06-11T20:31:05.897Z,9.88
2018-06-11T20:33:35.083Z,8.83
2018-06-11T20:36:04.326Z,9.18
2018-06-11T20:38:33.469Z,9.43
2018-06-11T20:41:02.713Z,8.45
2018-06-11T20:43:31.653Z,9.38
2018-06-11T20:46:01.404Z,8.78
2018-06-11T20:48:31.726Z,8.73
2018-06-11T20:51:01.134Z,8.73
2018-06-11T20:53:30.523Z,9.07
2018-06-11T20:56:00.023Z,9.03
2018-06-11T20:58:28.994Z,9.05
2018-06-11T21:00:58.396Z,8.97
2018-06-11T21:03:27.995Z,8.50
2018-06-11T21:05:57.005Z,9.17
2018-06-11T21:08:26.065Z,8.97
2018-06-11T21:10:55.425Z,8.90
2018-06-11T21:13:24.353Z,9.13
2018-06-11T21:15:53.926Z,8.67
2018-06-11T21:18:23.312Z,9.00
2018-06-11T21:20:53.093Z,8.80
2018-06-11T21:23:22.157Z,8.73
2018-06-11T21:25:51.293Z,8.53
2018-06-11T21:28:20.251Z,8.10
2018-06-11T21:30:49.210Z,8.77
2018-06-11T21:33:18.037Z,8.90
2018-06-11T21:35:47.077Z,7.93
2018-06-11T21:38:15.951Z,8.58
2018-06-11T21:40:45.114Z,8.07
2018-06-11T21:43:13.954Z,8.27
2018-06-11T21:45:42.857Z,8.60
2018-06-11T21:48:11.691Z,9.10
2018-06-11T21:50:40.585Z,9.48
2018-06-11T21:53:09.473Z,8.40
2018-06-11T21:55:38.829Z,8.90
2018-06-11T21:58:07.753Z,7.93
2018-06-11T22:00:36.670Z,9.10
2018-06-11T22:03:06.948Z,8.87
2018-06-11T22:05:35.896Z,8.87
2018-06-11T22:08:04.815Z,9.33
2018-06-11T22:10:39.110Z,9.13
2018-06-11T22:13:08.141Z,9.23
2018-06-11T22:15:37.069Z,9.17
2018-06-11T22:18:05.985Z,9.23
2018-06-11T22:20:35.460Z,9.30
2018-06-11T22:23:04.352Z,9.13
2018-06-11T22:25:33.288Z,9.57
2018-06-11T22:28:02.147Z,8.83
2018-06-11T22:30:31.203Z,8.50
2018-06-11T22:33:00.067Z,9.10
2018-06-11T22:35:28.602Z,8.97
2018-06-11T22:37:57.442Z,9.67
2018-06-11T22:40:26.397Z,9.50
2018-06-11T22:42:55.273Z,9.03
2018-06-11T22:45:24.212Z,9.37
2018-06-11T22:47:53.096Z,9.20
2018-06-11T22:50:21.976Z,9.77
2018-06-11T22:52:50.849Z,9.73
2018-06-11T22:55:19.744Z,10.00
2018-06-11T22:57:48.633Z,10.53
2018-06-11T23:00:30.489Z,9.70
2018-06-11T23:02:59.413Z,10.77
2018-06-11T23:05:28.398Z,8.80
2018-06-11T23:07:57.487Z,10.50
2018-06-11T23:10:26.620Z,9.47
2018-06-11T23:12:55.112Z,9.73
2018-06-11T23:15:23.984Z,8.90
2018-06-11T23:17:52.860Z,8.73
2018-06-11T23:20:21.709Z,9.43
2018-06-11T23:22:50.640Z,8.63
2018-06-11T23:25:19.520Z,9.57
2018-06-11T23:27:48.544Z,8.03
2018-06-11T23:30:17.391Z,8.10
2018-06-11T23:32:46.268Z,8.57
2018-06-11T23:35:15.286Z,8.47
2018-06-11T23:37:44.285Z,8.43
2018-06-11T23:40:13.168Z,7.67
2018-06-11T23:42:42.061Z,8.13
2018-06-11T23:45:10.950Z,8.37
2018-06-11T23:47:39.853Z,8.53
2018-06-11T23:50:08.728Z,8.37
2018-06-11T23:52:37.624Z,8.30
2018-06-11T23:55:06.508Z,8.70
2018-06-11T23:57:35.432Z,8.07
